createdAt,value
2018-07-21T00:00:55.329Z,21.25
2018-07-21T00:03:25.161Z,21.34
2018-07-21T00:05:54.387Z,21.42
2018-07-21T00:08:24.933Z,21.38
2018-07-21T00:10:55.258Z,21.38
2018-07-21T00:13:25.304Z,21.39
2018-07-21T00:15:54.865Z,21.42
2018-07-21T00:18:27.426Z,21.49
2018-07-21T00:20:56.660Z,21.56
2018-07-21T00:23:27.217Z,21.56
2018-07-21T00:25:58.525Z,21.59
2018-07-21T00:28:28.333Z,21.47
2018-07-21T00:31:02.205Z,21.58
2018-07-21T00:33:33.385Z,21.59
2018-07-21T00:36:03.224Z,21.54
2018-07-21T00:38:39.612Z,21.58
2018-07-21T00:41:12.198Z,21.56
2018-07-21T00:43:43.626Z,21.48
2018-07-21T00:46:22.378Z,21.21
2018-07-21T00:49:00.569Z,20.92
2018-07-21T00:51:43.477Z,20.87
2018-07-21T00:54:22.602Z,21.27
2018-07-21T00:59:45.383Z,21.64
2018-07-21T01:02:18.098Z,21.86
2018-07-21T01:04:56.293Z,22.06
2018-07-21T01:10:07.992Z,22.07
2018-07-21T01:12:46.112Z,22.11
2018-07-21T01:15:17.837Z,22.18
2018-07-21T01:17:53.416Z,22.27
2018-07-21T01:20:29.676Z,22.26
2018-07-21T01:23:01.425Z,22.27
2018-07-21T01:25:30.724Z,22.31
2018-07-21T01:28:10.027Z,22.31
2018-07-21T01:30:45.877Z,22.32
2018-07-21T01:33:15.747Z,22.30
2018-07-21T01:35:45.225Z,22.21
2018-07-21T01:38:16.366Z,22.16
2018-07-21T01:40:45.973Z,22.15
2018-07-21T01:43:15.310Z,22.08
2018-07-21T01:45:47.262Z,21.91
2018-07-21T01:48:16.404Z,21.87
2018-07-21T01:50:45.708Z,21.85
2018-07-21T01:53:15.953Z,21.81
2018-07-21T01:55:45.988Z,21.83
2018-07-21T01:58:15.138Z,21.75
2018-07-21T02:00:46.135Z,21.51
2018-07-21T02:03:17.090Z,21.46
2018-07-21T02:05:48.193Z,21.24
2018-07-21T02:08:17.409Z,21.11
2018-07-21T02:10:46.569Z,20.81
2018-07-21T02:13:18.486Z,20.48
2018-07-21T02:15:48.289Z,20.27
2018-07-21T02:18:18.317Z,20.14
2018-07-21T02:20:48.448Z,19.88
2018-07-21T02:23:20.716Z,19.87
2018-07-21T02:25:51.204Z,19.82
2018-07-21T02:28:21.600Z,19.60
2018-07-21T02:30:50.757Z,19.52
2018-07-21T02:33:21.915Z,19.53
2018-07-21T02:35:51.512Z,19.51
2018-07-21T02:38:21.509Z,19.50
2018-07-21T02:40:52.857Z,19.49
2018-07-21T02:43:22.860Z,19.35
2018-07-21T02:45:53.029Z,19.32
2018-07-21T02:48:28.403Z,19.34
2018-07-21T02:50:59.537Z,19.30
2018-07-21T02:53:33.701Z,19.28
2018-07-21T02:56:05.015Z,19.27
2018-07-21T02:58:35.152Z,19.29
2018-07-21T03:01:07.569Z,19.23
2018-07-21T03:03:39.367Z,19.16
2018-07-21T03:06:10.338Z,19.14
2018-07-21T03:08:42.508Z,19.15
2018-07-21T03:11:13.312Z,19.14
2018-07-21T03:13:49.973Z,19.12
2018-07-21T03:16:21.467Z,19.02
2018-07-21T03:18:55.041Z,19.07
2018-07-21T03:21:25.857Z,19.04
2018-07-21T03:23:57.304Z,19.05
2018-07-21T03:26:27.356Z,19.07
2018-07-21T03:28:56.863Z,19.10
2018-07-21T03:31:28.852Z,19.16
2018-07-21T03:33:58.652Z,19.12
2018-07-21T03:36:31.200Z,19.15
2018-07-21T03:39:03.181Z,19.02
2018-07-21T03:41:36.397Z,19.00
2018-07-21T03:44:11.990Z,19.00
2018-07-21T03:46:42.113Z,18.93
2018-07-21T03:49:16.328Z,18.94
2018-07-21T03:51:49.264Z,18.93
2018-07-21T03:54:19.384Z,18.89
2018-07-21T03:56:51.019Z,18.90
2018-07-21T03:59:25.290Z,18.87
2018-07-21T04:01:55.380Z,18.87
2018-07-21T04:04:28.104Z,18.80
2018-07-21T04:07:07.065Z,18.77
2018-07-21T04:09:38.312Z,18.79
2018-07-21T04:12:09.988Z,18.72
2018-07-21T04:14:43.564Z,18.76
2018-07-21T04:17:20.636Z,18.77
2018-07-21T04:19:55.565Z,18.81
2018-07-21T04:22:26.982Z,18.83
2018-07-21T04:24:56.873Z,18.88
2018-07-21T04:27:32.821Z,18.91
2018-07-21T04:30:06.509Z,18.95
2018-07-21T04:32:37.824Z,18.95
2018-07-21T04:35:07.684Z,18.94
2018-07-21T04:37:40.339Z,18.88
2018-07-21T04:40:10.646Z,18.90
2018-07-21T04:42:41.216Z,18.89
2018-07-21T04:45:11.512Z,18.93
2018-07-21T04:47:45.380Z,18.90
2018-07-21T04:50:16.144Z,18.91
2018-07-21T04:52:46.700Z,18.87
2018-07-21T04:55:16.704Z,18.92
2018-07-21T04:57:47.452Z,18.95
2018-07-21T05:00:19.208Z,19.00
2018-07-21T05:02:50.628Z,19.00
2018-07-21T05:05:24.869Z,19.07
2018-07-21T05:07:57.440Z,19.12
2018-07-21T05:10:29.432Z,19.16
2018-07-21T05:13:00.752Z,19.23
2018-07-21T05:15:31.679Z,19.29
2018-07-21T05:18:03.227Z,19.29
2018-07-21T05:20:35.618Z,19.40
2018-07-21T05:23:06.577Z,19.46
2018-07-21T05:25:39.752Z,19.55
2018-07-21T05:28:10.164Z,19.56
2018-07-21T05:30:44.763Z,19.61
2018-07-21T05:33:18.293Z,19.62
2018-07-21T05:35:49.816Z,19.63
2018-07-21T05:38:19.356Z,19.54
2018-07-21T05:40:49.665Z,19.53
2018-07-21T05:43:25.213Z,19.51
2018-07-21T05:46:01.273Z,19.47
2018-07-21T05:48:36.848Z,19.42
2018-07-21T05:51:12.878Z,19.43
2018-07-21T05:53:44.348Z,19.26
2018-07-21T05:56:16.312Z,19.26
2018-07-21T05:58:47.357Z,19.34
2018-07-21T06:01:19.039Z,19.29
2018-07-21T06:03:49.072Z,19.39
2018-07-21T06:06:19.155Z,19.33
2018-07-21T06:08:54.579Z,19.28
2018-07-21T06:11:28.197Z,19.23
2018-07-21T06:13:59.028Z,19.09
2018-07-21T06:16:30.054Z,19.07
2018-07-21T06:19:02.290Z,18.99
2018-07-21T06:21:34.605Z,19.05
2018-07-21T06:24:05.634Z,19.16
2018-07-21T06:26:37.097Z,19.16
2018-07-21T06:29:09.673Z,19.24
2018-07-21T06:31:41.784Z,19.26
2018-07-21T06:34:14.609Z,19.32
2018-07-21T06:36:46.277Z,19.45
2018-07-21T06:39:17.628Z,19.53
2018-07-21T06:41:47.768Z,19.50
2018-07-21T06:44:19.353Z,19.52
2018-07-21T06:46:50.137Z,19.49
2018-07-21T06:49:20.409Z,19.58
2018-07-21T06:51:51.216Z,19.76
2018-07-21T06:54:23.324Z,19.73
2018-07-21T06:56:56.225Z,19.86
2018-07-21T06:59:26.673Z,19.82
2018-07-21T07:02:06.976Z,19.79
2018-07-21T07:04:40.157Z,20.02
2018-07-21T07:07:11.320Z,20.13
2018-07-21T07:09:40.415Z,20.20
2018-07-21T07:12:12.730Z,20.29
2018-07-21T07:14:43.545Z,20.54
2018-07-21T07:17:13.906Z,20.52
2018-07-21T07:19:55.713Z,20.75
2018-07-21T07:22:27.466Z,20.99
2018-07-21T07:25:00.228Z,21.03
2018-07-21T07:27:33.290Z,21.12
2018-07-21T07:30:06.529Z,21.06
2018-07-21T07:32:37.963Z,21.10
2018-07-21T07:35:11.646Z,21.10
2018-07-21T07:37:49.004Z,20.87
2018-07-21T07:40:28.086Z,20.83
2018-07-21T07:43:03.637Z,20.88
2018-07-21T07:45:37.861Z,20.96
2018-07-21T07:48:09.627Z,21.06
2018-07-21T07:50:41.468Z,21.00
2018-07-21T07:53:16.293Z,21.09
2018-07-21T07:55:48.300Z,21.01
2018-07-21T07:58:22.267Z,21.20
2018-07-21T08:00:53.412Z,21.38
2018-07-21T08:03:25.174Z,21.46
2018-07-21T08:05:58.336Z,21.35
2018-07-21T08:08:30.705Z,21.38
2018-07-21T08:11:01.841Z,21.27
2018-07-21T08:13:31.772Z,21.07
2018-07-21T08:16:01.540Z,21.13
2018-07-21T08:18:33.749Z,21.24
2018-07-21T08:21:04.004Z,21.42
2018-07-21T08:23:40.067Z,21.49
2018-07-21T08:26:12.049Z,21.61
2018-07-21T08:28:42.476Z,21.80
2018-07-21T08:31:12.528Z,21.85
2018-07-21T08:33:43.504Z,21.69
2018-07-21T08:38:51.326Z,21.63
2018-07-21T08:41:23.673Z,21.77
2018-07-21T08:43:59.504Z,21.58
2018-07-21T08:46:32.774Z,21.89
2018-07-21T08:49:04.296Z,21.95
2018-07-21T08:51:34.926Z,21.91
2018-07-21T08:54:07.146Z,22.01
2018-07-21T08:56:36.960Z,22.13
2018-07-21T08:59:07.892Z,22.20
2018-07-21T09:01:38.344Z,22.41
2018-07-21T09:04:08.833Z,22.36
2018-07-21T09:06:41.821Z,22.14
2018-07-21T09:09:13.481Z,22.21
2018-07-21T09:11:44.257Z,22.25
2018-07-21T09:14:14.743Z,22.22
2018-07-21T09:16:44.684Z,22.36
2018-07-21T09:19:14.632Z,22.37
2018-07-21T09:21:44.809Z,22.38
2018-07-21T09:24:16.482Z,22.66
2018-07-21T09:26:50.737Z,22.94
2018-07-21T09:29:22.348Z,23.07
2018-07-21T09:31:52.724Z,23.66
2018-07-21T09:34:27.320Z,24.01
2018-07-21T09:36:58.287Z,24.64
2018-07-21T09:39:29.369Z,24.85
2018-07-21T09:42:02.561Z,25.02
2018-07-21T09:44:34.500Z,25.39
2018-07-21T09:47:05.828Z,25.73
2018-07-21T09:49:43.245Z,25.81
2018-07-21T09:52:19.856Z,25.75
2018-07-21T09:55:01.221Z,25.41
2018-07-21T09:57:42.788Z,25.37
2018-07-21T10:00:28.168Z,26.41
2018-07-21T10:03:16.573Z,27.08
2018-07-21T10:05:57.376Z,27.55
2018-07-21T10:11:19.440Z,27.88
2018-07-21T10:14:08.497Z,28.05
2018-07-21T10:16:43.675Z,28.75
2018-07-21T10:19:17.983Z,30.29
2018-07-21T10:21:51.862Z,32.04
2018-07-21T10:24:33.243Z,32.11
2018-07-21T10:27:13.748Z,31.98
2018-07-21T10:29:45.297Z,31.72
2018-07-21T10:34:56.444Z,32.26
2018-07-21T10:37:26.617Z,32.81
2018-07-21T10:39:55.841Z,32.36
2018-07-21T10:42:29.262Z,31.40
2018-07-21T10:45:01.531Z,31.67
2018-07-21T10:47:42.661Z,30.92
2018-07-21T10:50:12.624Z,30.07
2018-07-21T10:52:41.772Z,30.16
2018-07-21T10:55:10.963Z,29.67
2018-07-21T10:57:40.372Z,30.45
2018-07-21T11:00:09.839Z,32.03
2018-07-21T11:02:40.611Z,32.49
2018-07-21T11:05:09.860Z,33.17
2018-07-21T11:07:39.729Z,33.12
2018-07-21T11:10:08.812Z,33.45
2018-07-21T11:12:37.998Z,34.40
2018-07-21T11:15:10.281Z,35.26
2018-07-21T11:17:43.340Z,33.24
2018-07-21T11:20:13.495Z,32.36
2018-07-21T11:22:43.811Z,32.59
2018-07-21T11:25:13.640Z,32.08
2018-07-21T11:27:43.069Z,32.03
2018-07-21T11:30:12.444Z,31.76
2018-07-21T11:32:41.725Z,31.46
2018-07-21T11:35:14.557Z,32.75
2018-07-21T11:37:44.456Z,33.12
2018-07-21T11:40:14.665Z,32.59
2018-07-21T11:42:43.788Z,31.28
2018-07-21T11:45:14.085Z,30.90
2018-07-21T11:47:45.712Z,30.84
2018-07-21T11:50:20.768Z,30.85
2018-07-21T11:52:54.115Z,31.01
2018-07-21T11:55:27.457Z,30.73
2018-07-21T11:57:56.607Z,30.83
2018-07-21T12:00:26.836Z,31.21
2018-07-21T12:03:05.573Z,31.01
2018-07-21T12:05:34.769Z,30.17
2018-07-21T12:08:05.328Z,30.21
2018-07-21T12:10:38.204Z,30.13
2018-07-21T12:13:13.147Z,30.85
2018-07-21T12:15:46.563Z,31.05
2018-07-21T12:18:16.452Z,30.16
2018-07-21T12:20:51.584Z,30.77
2018-07-21T12:23:24.860Z,31.70
2018-07-21T12:25:57.223Z,32.48
2018-07-21T12:28:32.501Z,31.91
2018-07-21T12:31:07.329Z,31.98
2018-07-21T12:33:39.383Z,32.11
2018-07-21T12:36:12.164Z,32.01
2018-07-21T12:38:46.487Z,32.72
2018-07-21T12:41:20.037Z,31.63
2018-07-21T12:43:56.441Z,32.08
2018-07-21T12:46:28.618Z,32.62
2018-07-21T12:48:58.687Z,32.33
2018-07-21T12:51:32.831Z,32.23
2018-07-21T12:54:04.830Z,31.95
2018-07-21T12:56:35.984Z,31.99
2018-07-21T12:59:06.673Z,31.42
2018-07-21T13:01:38.580Z,31.57
2018-07-21T13:04:09.465Z,31.89
2018-07-21T13:06:42.201Z,32.48
2018-07-21T13:09:14.718Z,32.06
2018-07-21T13:11:50.952Z,31.33
2018-07-21T13:14:22.130Z,31.56
2018-07-21T13:16:53.595Z,31.72
2018-07-21T13:19:24.749Z,31.95
2018-07-21T13:21:54.692Z,32.30
2018-07-21T13:24:25.220Z,32.46
2018-07-21T13:27:02.793Z,32.44
2018-07-21T13:29:34.928Z,32.70
2018-07-21T13:32:06.704Z,32.50
2018-07-21T13:34:37.265Z,32.11
2018-07-21T13:37:09.000Z,32.08
2018-07-21T13:39:45.277Z,31.74
2018-07-21T13:42:22.024Z,31.89
2018-07-21T13:44:57.393Z,31.55
2018-07-21T13:47:28.689Z,31.35
2018-07-21T13:49:58.761Z,31.76
2018-07-21T13:52:29.815Z,31.48
2018-07-21T13:54:59.346Z,31.56
2018-07-21T13:57:30.265Z,31.88
2018-07-21T14:00:01.054Z,32.19
2018-07-21T14:02:32.058Z,32.28
2018-07-21T14:05:01.541Z,31.74
2018-07-21T14:07:34.199Z,31.86
2018-07-21T14:10:08.828Z,31.79
2018-07-21T14:12:39.605Z,31.06
2018-07-21T14:15:10.168Z,31.19
2018-07-21T14:17:40.922Z,30.87
2018-07-21T14:20:12.980Z,31.43
2018-07-21T14:22:44.649Z,31.31
2018-07-21T14:25:16.451Z,31.94
2018-07-21T14:27:48.059Z,31.84
2018-07-21T14:30:19.620Z,30.34
2018-07-21T14:32:49.549Z,30.94
2018-07-21T14:35:19.590Z,31.13
2018-07-21T14:37:48.887Z,30.27
2018-07-21T14:40:18.268Z,30.18
2018-07-21T14:42:48.160Z,30.16
2018-07-21T14:45:19.320Z,29.61
2018-07-21T14:47:50.392Z,29.04
2018-07-21T14:50:20.340Z,28.73
2018-07-21T14:52:51.083Z,28.35
2018-07-21T14:55:22.159Z,28.82
2018-07-21T14:57:56.130Z,29.16
2018-07-21T15:00:30.865Z,29.21
2018-07-21T15:03:01.098Z,29.11
2018-07-21T15:05:32.333Z,29.28
2018-07-21T15:08:04.189Z,29.33
2018-07-21T15:10:36.154Z,28.08
2018-07-21T15:13:06.065Z,27.40
2018-07-21T15:15:37.646Z,27.28
2018-07-21T15:18:11.316Z,27.08
2018-07-21T15:20:45.650Z,26.92
2018-07-21T15:23:15.764Z,26.87
2018-07-21T15:25:46.308Z,26.35
2018-07-21T15:28:17.832Z,26.29
2018-07-21T15:30:48.701Z,25.98
2018-07-21T15:33:22.895Z,26.05
2018-07-21T15:35:55.786Z,25.87
2018-07-21T15:38:27.442Z,25.40
2018-07-21T15:40:58.395Z,24.83
2018-07-21T15:43:27.880Z,24.54
2018-07-21T15:46:00.773Z,24.68
2018-07-21T15:48:34.863Z,24.37
2018-07-21T15:51:07.416Z,23.87
2018-07-21T15:53:38.325Z,23.41
2018-07-21T15:56:08.127Z,23.61
2018-07-21T15:58:41.281Z,23.55
2018-07-21T16:01:13.472Z,22.05
2018-07-21T16:03:48.329Z,19.26
2018-07-21T16:06:18.313Z,18.70
2018-07-21T16:08:54.732Z,18.68
2018-07-21T16:11:28.794Z,18.62
2018-07-21T16:14:04.752Z,18.77
2018-07-21T16:16:43.633Z,18.95
2018-07-21T16:19:19.376Z,19.31
2018-07-21T16:21:55.180Z,19.47
2018-07-21T16:24:32.489Z,19.53
2018-07-21T16:27:05.535Z,19.61
2018-07-21T16:29:36.144Z,19.73
2018-07-21T16:32:13.888Z,19.97
2018-07-21T16:34:49.119Z,19.89
2018-07-21T16:37:20.333Z,19.91
2018-07-21T16:39:54.875Z,20.06
2018-07-21T16:42:27.864Z,20.16
2018-07-21T16:45:06.105Z,19.95
2018-07-21T16:47:36.732Z,19.89
2018-07-21T16:50:10.132Z,20.08
2018-07-21T16:52:41.861Z,19.87
2018-07-21T16:55:13.152Z,20.03
2018-07-21T16:57:44.997Z,20.01
2018-07-21T17:00:15.997Z,20.01
2018-07-21T17:02:46.256Z,20.07
2018-07-21T17:05:20.360Z,20.17
2018-07-21T17:07:54.343Z,20.16
2018-07-21T17:10:28.456Z,20.26
2018-07-21T17:13:00.924Z,20.15
2018-07-21T17:15:38.238Z,20.03
2018-07-21T17:18:13.017Z,19.68
2018-07-21T17:20:43.925Z,19.81
2018-07-21T17:23:15.125Z,19.98
2018-07-21T17:25:49.485Z,20.04
2018-07-21T17:28:19.097Z,20.04
2018-07-21T17:30:56.050Z,19.83
2018-07-21T17:33:26.710Z,19.62
2018-07-21T17:35:56.597Z,19.57
2018-07-21T17:38:28.825Z,19.64
2018-07-21T17:41:01.168Z,19.59
2018-07-21T17:43:32.065Z,19.77
2018-07-21T17:46:02.132Z,19.90
2018-07-21T17:48:32.954Z,19.84
2018-07-21T17:51:02.952Z,19.82
2018-07-21T17:53:33.609Z,19.84
2018-07-21T17:58:41.737Z,19.66
2018-07-21T18:01:13.004Z,19.60
2018-07-21T18:03:43.483Z,19.60
2018-07-21T18:06:19.665Z,19.54
2018-07-21T18:08:50.691Z,19.47
2018-07-21T18:11:21.324Z,19.46
2018-07-21T18:13:52.428Z,19.45
2018-07-21T18:16:22.679Z,19.50
2018-07-21T18:18:51.753Z,19.59
2018-07-21T18:21:24.412Z,19.60
2018-07-21T18:23:55.973Z,19.59
2018-07-21T18:26:28.918Z,19.44
2018-07-21T18:28:58.424Z,19.46
2018-07-21T18:31:27.862Z,19.39
2018-07-21T18:33:58.823Z,19.41
2018-07-21T18:36:29.554Z,19.42
2018-07-21T18:38:59.669Z,19.35
2018-07-21T18:41:31.288Z,19.38
2018-07-21T18:44:06.177Z,19.41
2018-07-21T18:46:37.313Z,19.46
2018-07-21T18:49:09.665Z,19.37
2018-07-21T18:51:40.540Z,19.38
2018-07-21T18:54:11.756Z,19.34
2018-07-21T18:56:44.699Z,19.28
2018-07-21T18:59:17.732Z,19.18
2018-07-21T19:01:48.625Z,19.15
2018-07-21T19:09:57.212Z,19.03
2018-07-21T19:12:36.716Z,18.99
2018-07-21T19:15:23.243Z,18.97
2018-07-21T19:17:56.659Z,18.92
2018-07-21T19:20:39.679Z,18.82
2018-07-21T19:23:15.872Z,18.75
2018-07-21T19:25:55.814Z,18.62
2018-07-21T19:28:30.536Z,18.61
2018-07-21T19:31:08.832Z,18.66
2018-07-21T19:33:57.945Z,18.50
2018-07-21T19:36:38.033Z,18.60
2018-07-21T19:39:12.276Z,18.65
2018-07-21T19:41:57.930Z,18.62
2018-07-21T19:44:35.689Z,18.48
2018-07-21T19:47:09.317Z,18.52
2018-07-21T19:49:39.648Z,18.52
2018-07-21T19:52:15.808Z,18.59
2018-07-21T19:54:47.156Z,18.61
2018-07-21T19:57:19.477Z,18.61
2018-07-21T19:59:48.639Z,18.56
2018-07-21T20:02:17.769Z,18.51
2018-07-21T20:04:47.224Z,18.53
2018-07-21T20:07:16.371Z,18.54
2018-07-21T20:09:45.520Z,18.44
2018-07-21T20:12:14.963Z,18.40
2018-07-21T20:14:44.040Z,18.34
2018-07-21T20:17:13.289Z,18.21
2018-07-21T20:19:43.418Z,18.05
2018-07-21T20:22:12.969Z,18.01
2018-07-21T20:24:42.112Z,17.96
2018-07-21T20:27:10.990Z,18.08
2018-07-21T20:29:39.830Z,17.99
2018-07-21T20:32:10.597Z,17.94
2018-07-21T20:34:40.384Z,17.98
2018-07-21T20:37:09.520Z,17.95
2018-07-21T20:39:40.442Z,17.93
2018-07-21T20:42:09.961Z,18.00
2018-07-21T20:44:39.480Z,18.02
2018-07-21T20:47:10.152Z,18.00
2018-07-21T20:49:40.192Z,18.03
2018-07-21T20:52:10.637Z,17.97
2018-07-21T20:54:40.160Z,18.04
2018-07-21T20:57:11.512Z,18.09
2018-07-21T20:59:40.953Z,17.99
2018-07-21T21:02:20.274Z,18.00
2018-07-21T21:04:50.817Z,17.98
2018-07-21T21:07:24.217Z,17.97
2018-07-21T21:09:59.050Z,17.85
2018-07-21T21:12:29.679Z,17.90
2018-07-21T21:15:00.577Z,17.90
2018-07-21T21:17:32.829Z,17.87
2018-07-21T21:20:03.207Z,17.92
2018-07-21T21:22:32.945Z,17.89
2018-07-21T21:25:03.817Z,17.87
2018-07-21T21:27:34.504Z,17.92
2018-07-21T21:30:06.253Z,17.89
2018-07-21T21:32:37.641Z,17.90
2018-07-21T21:35:07.315Z,17.92
2018-07-21T21:37:41.388Z,17.84
2018-07-21T21:40:10.868Z,17.78
2018-07-21T21:42:42.244Z,17.75
2018-07-21T21:45:13.424Z,17.73
2018-07-21T21:47:43.771Z,17.74
2018-07-21T21:50:19.545Z,17.79
2018-07-21T21:52:50.170Z,17.86
2018-07-21T21:55:21.624Z,17.83
2018-07-21T21:57:53.539Z,17.83
2018-07-21T22:00:25.328Z,17.90
2018-07-21T22:02:55.656Z,17.88
2018-07-21T22:05:27.319Z,17.80
2018-07-21T22:07:58.052Z,17.79
2018-07-21T22:10:30.035Z,17.73
2018-07-21T22:12:59.428Z,17.54
2018-07-21T22:15:29.610Z,17.43
2018-07-21T22:17:59.956Z,17.55
2018-07-21T22:20:30.948Z,17.65
2018-07-21T22:23:01.530Z,17.70
2018-07-21T22:25:34.924Z,17.75
2018-07-21T22:28:06.819Z,17.76
2018-07-21T22:30:43.036Z,17.78
2018-07-21T22:33:13.581Z,17.77
2018-07-21T22:35:46.148Z,17.73
2018-07-21T22:38:18.357Z,17.77
2018-07-21T22:40:52.284Z,17.83
2018-07-21T22:43:25.484Z,17.85
2018-07-21T22:45:55.721Z,17.82
2018-07-21T22:48:26.593Z,17.87
2018-07-21T22:50:58.140Z,17.91
2018-07-21T22:53:28.079Z,17.89
2018-07-21T22:56:02.965Z,17.81
2018-07-21T22:58:35.439Z,17.80
2018-07-21T23:01:07.244Z,17.79
2018-07-21T23:03:37.339Z,17.78
2018-07-21T23:06:11.875Z,17.73
2018-07-21T23:08:41.766Z,17.72
2018-07-21T23:11:12.794Z,17.75
2018-07-21T23:13:44.668Z,17.71
2018-07-21T23:16:16.324Z,17.72
2018-07-21T23:18:45.814Z,17.71
2018-07-21T23:21:15.845Z,17.70
2018-07-21T23:23:45.913Z,17.65
2018-07-21T23:26:16.215Z,17.57
2018-07-21T23:28:50.541Z,17.53
2018-07-21T23:31:21.641Z,17.49
2018-07-21T23:33:53.398Z,17.47
2018-07-21T23:36:23.411Z,17.41
2018-07-21T23:39:01.825Z,17.43
2018-07-21T23:41:31.655Z,17.44
2018-07-21T23:44:06.711Z,17.41
2018-07-21T23:46:38.857Z,17.42
2018-07-21T23:49:09.894Z,17.42
2018-07-21T23:51:46.971Z,17.15
2018-07-21T23:54:18.597Z,17.26
2018-07-21T23:56:48.955Z,17.28
2018-07-21T23:59:19.246Z,17.32
